H.kanter — ESUB — position and weather

sailwx.info

Track history (hours):
 
Tides and Currents Weather Stations Pressure Air Temp Water Temp Dewpoint Dewpoint Depression Visibility Wind Speed Wind Dir Waves Ship Positions

H.kanter

Last reported at 2015-Apr-16 17:17 UTC. Time now 2015-Apr-19 19:11 UTC.
Position N 59°32' E 024°56'.

Length 33 m; draft 4.7 m.

Type: Tug. MMSI: 276504000.

Date/timePositionNaut miles runAvg speedWind from/ knotsBaromVisibWave heightAir tempDewpointWater temp
2015-Apr-16 17:17N 59°32' E 024°56'4 5.2
2015-Apr-16 16:33N 59°35' E 024°51'  
2015-Apr-12 15:33N 59°36' E 024°49'10 9.6
2015-Apr-12 14:33N 59°38' E 024°31'5 0.7
2015-Apr-12 07:20N 59°36' E 024°22'810.1
2015-Apr-12 06:33N 59°38' E 024°36'1110.4
2015-Apr-12 05:31N 59°33' E 024°55'  
2015-Apr-09 10:31N 59°32' E 024°57'9 9.3
2015-Apr-09 09:33N 59°37' E 024°42'8 7.8
2015-Apr-09 08:33N 59°30' E 024°49'1 1.0
2015-Apr-09 07:34N 59°30' E 024°47'8 7.6
2015-Apr-09 06:34N 59°36' E 024°40'8 8.1
2015-Apr-09 05:33N 59°33' E 024°54'2 0.0
2015-Apr-07 15:32N 59°32' E 024°57'9 9.2
2015-Apr-07 14:34N 59°37' E 024°42'8 7.9
2015-Apr-07 13:33N 59°30' E 024°49'1 0.6
2015-Apr-07 12:33N 59°30' E 024°48'8 8.3
2015-Apr-07 11:34N 59°37' E 024°40'9 7.8
2015-Apr-07 10:26N 59°33' E 024°55'  
Track history (hours):
 
Tides and Currents Weather Stations Pressure Air Temp Water Temp Dewpoint Dewpoint Depression Visibility Wind Speed Wind Dir Waves Ship Positions

H.kanter

Last reported at 2015-Apr-16 17:17 UTC. Time now 2015-Apr-19 19:11 UTC.
Position N 59°32' E 024°56'.

Length 33 m; draft 4.7 m.

Type: Tug. MMSI: 276504000.

Date/timePositionNaut miles runAvg speedWind from/ knotsBaromVisibWave heightAir tempDewpointWater temp
2015-Apr-16 17:17N 59°32' E 024°56'4 5.2
2015-Apr-16 16:33N 59°35' E 024°51'  
2015-Apr-12 15:33N 59°36' E 024°49'10 9.6
2015-Apr-12 14:33N 59°38' E 024°31'5 0.7
2015-Apr-12 07:20N 59°36' E 024°22'810.1
2015-Apr-12 06:33N 59°38' E 024°36'1110.4
2015-Apr-12 05:31N 59°33' E 024°55'  
2015-Apr-09 10:31N 59°32' E 024°57'9 9.3
2015-Apr-09 09:33N 59°37' E 024°42'8 7.8
2015-Apr-09 08:33N 59°30' E 024°49'1 1.0
2015-Apr-09 07:34N 59°30' E 024°47'8 7.6
2015-Apr-09 06:34N 59°36' E 024°40'8 8.1
2015-Apr-09 05:33N 59°33' E 024°54'2 0.0
2015-Apr-07 15:32N 59°32' E 024°57'9 9.2
2015-Apr-07 14:34N 59°37' E 024°42'8 7.9
2015-Apr-07 13:33N 59°30' E 024°49'1 0.6
2015-Apr-07 12:33N 59°30' E 024°48'8 8.3
2015-Apr-07 11:34N 59°37' E 024°40'9 7.8
2015-Apr-07 10:26N 59°33' E 024°55'  

Dump ship's entire track history